Terminal Aerodrome Forecast
Issued by NWS Duluth, MN

Home | Current Version | Previous Version | Text Only | Print | Product List | Glossary On
Versions: 1 2 3 4 5 6 7 8 9 10 11 12 13 14 15 16 17 18 19 20 21 22 23 24 25 26 27 28 29 30 31 32 33 34 35 36 37 38 39 40 41 42 43 44 45
000
FTUS43 KDLH 011600 AAE
TAFDLH
TAF AMD
KDLH 011616Z 0116/0212 31012G18KT P6SM VCSH SCT015 BKN025 OVC040
     FM012200 29011KT P6SM SCT050
     FM020100 28006KT P6SM SCT050
     FM020400 28006KT P6SM BKN050=

USA.gov is the U.S. government's official web portal to all federal, state and local government web resources and services.